Pagrindinis puslapis
METAR-TAF:

METAR-TAF

Oro uostai :

Kiruna, Švedija

platuma: 67-49N, ilguma: 020-20E, Aukštis: 452 m

Dabartinis oras

Ataskaita buvo paskelbta 29 minutes, ne 14:50 UTC
Vėjas 9 kt iš Pietryčių
Temperatūra 6°C
Drėgmė 93%
Slėgis 993 hPa
Matomumas 10 km arba daugiau
lietus

METAR: ESNQ 231450Z AUTO 14009KT 9999 -RA OVC005/// 06/05 Q0993 REDZ

Laikas: 17:19 (15:19 UTC)

Prognozė

Ataskaita buvo paskelbta 49 minutes, ne 14:30 UTC
Prognozė galioja nuo 23 metu 15 UTC su 23 metu 20 UTC
Vėjas 10 kt iš Pietų/Pietryčių
Matomumas 10 km arba daugiau
Su prošvaistėmis ne aukštis 600 ft
lietus

TAF: ESNQ 231430Z 2315/2320 16010KT 9999 -RA BKN006

Orai ataskaitas ir orų prognozės (METAR, TAF).

turimą stotys yra geltonos ir raudonos taškus žemėlapyje.

Perkelti pele per norėdami pamatyti stoties vardą.

Tada spustelėkite, norėdami matyti oro stebėjimo ir prognozės.

Norėdami pakeisti žemėlapį: spustelėkite ant žalios mygtukų su juodo kryžiaus žemyn,; žalią mygtuką su brūkšneliu, jei norite nutolinti; arba žalių rodyklių gretimoms žemėlapius.


METAR-TAF: